sensor_id;sensor_type;location;lat;lon;timestamp;P1;durP1;ratioP1;P2;durP2;ratioP2
20381;SDS011;10350;51.280;12.400;2023-03-04T00:02:18;20.38;;;9.48;;
20381;SDS011;10350;51.280;12.400;2023-03-04T00:04:44;17.20;;;9.13;;
20381;SDS011;10350;51.280;12.400;2023-03-04T00:07:10;21.33;;;9.75;;
20381;SDS011;10350;51.280;12.400;2023-03-04T00:09:40;19.50;;;9.60;;
20381;SDS011;10350;51.280;12.400;2023-03-04T00:12:06;19.55;;;9.95;;
20381;SDS011;10350;51.280;12.400;2023-03-04T00:14:32;22.50;;;10.60;;
20381;SDS011;10350;51.280;12.400;2023-03-04T00:16:58;17.38;;;9.40;;
20381;SDS011;10350;51.280;12.400;2023-03-04T00:19:24;22.65;;;10.25;;
20381;SDS011;10350;51.280;12.400;2023-03-04T00:21:50;21.20;;;10.77;;
20381;SDS011;10350;51.280;12.400;2023-03-04T00:24:16;20.15;;;10.00;;
20381;SDS011;10350;51.280;12.400;2023-03-04T00:26:42;19.52;;;10.38;;
20381;SDS011;10350;51.280;12.400;2023-03-04T00:29:08;23.58;;;10.65;;
20381;SDS011;10350;51.280;12.400;2023-03-04T00:31:34;20.17;;;10.38;;
20381;SDS011;10350;51.280;12.400;2023-03-04T00:34:00;20.05;;;10.35;;
20381;SDS011;10350;51.280;12.400;2023-03-04T00:36:25;22.88;;;10.98;;
20381;SDS011;10350;51.280;12.400;2023-03-04T00:38:51;22.58;;;10.88;;
20381;SDS011;10350;51.280;12.400;2023-03-04T00:41:17;22.48;;;10.55;;
20381;SDS011;10350;51.280;12.400;2023-03-04T00:43:43;22.13;;;10.70;;
20381;SDS011;10350;51.280;12.400;2023-03-04T00:46:09;25.85;;;11.95;;
20381;SDS011;10350;51.280;12.400;2023-03-04T00:48:35;22.67;;;10.52;;
20381;SDS011;10350;51.280;12.400;2023-03-04T00:51:02;29.98;;;11.90;;
20381;SDS011;10350;51.280;12.400;2023-03-04T00:53:28;23.40;;;11.13;;
20381;SDS011;10350;51.280;12.400;2023-03-04T00:55:54;23.30;;;11.00;;
20381;SDS011;10350;51.280;12.400;2023-03-04T00:58:20;27.40;;;11.25;;
20381;SDS011;10350;51.280;12.400;2023-03-04T01:00:46;30.27;;;11.65;;
20381;SDS011;10350;51.280;12.400;2023-03-04T01:03:12;27.00;;;11.63;;
20381;SDS011;10350;51.280;12.400;2023-03-04T01:05:38;23.10;;;11.50;;
20381;SDS011;10350;51.280;12.400;2023-03-04T01:08:04;21.38;;;10.45;;
20381;SDS011;10350;51.280;12.400;2023-03-04T01:10:30;25.60;;;10.40;;
20381;SDS011;10350;51.280;12.400;2023-03-04T01:12:56;21.60;;;10.45;;
20381;SDS011;10350;51.280;12.400;2023-03-04T01:15:22;22.83;;;11.00;;
20381;SDS011;10350;51.280;12.400;2023-03-04T01:17:48;23.98;;;10.70;;
20381;SDS011;10350;51.280;12.400;2023-03-04T01:20:14;24.85;;;10.48;;
20381;SDS011;10350;51.280;12.400;2023-03-04T01:22:40;23.13;;;10.48;;
20381;SDS011;10350;51.280;12.400;2023-03-04T01:25:06;23.67;;;10.60;;
20381;SDS011;10350;51.280;12.400;2023-03-04T01:27:32;20.80;;;10.32;;
20381;SDS011;10350;51.280;12.400;2023-03-04T01:29:58;22.67;;;10.40;;
20381;SDS011;10350;51.280;12.400;2023-03-04T01:32:24;27.48;;;10.90;;
20381;SDS011;10350;51.280;12.400;2023-03-04T01:34:50;22.80;;;10.68;;
20381;SDS011;10350;51.280;12.400;2023-03-04T01:37:16;22.05;;;10.55;;
20381;SDS011;10350;51.280;12.400;2023-03-04T01:39:42;20.88;;;10.52;;
20381;SDS011;10350;51.280;12.400;2023-03-04T01:42:17;23.73;;;10.77;;
20381;SDS011;10350;51.280;12.400;2023-03-04T01:44:43;23.10;;;10.25;;
20381;SDS011;10350;51.280;12.400;2023-03-04T01:47:09;24.75;;;12.48;;
20381;SDS011;10350;51.280;12.400;2023-03-04T01:49:35;20.20;;;10.93;;
20381;SDS011;10350;51.280;12.400;2023-03-04T01:52:01;24.35;;;10.70;;
20381;SDS011;10350;51.280;12.400;2023-03-04T01:54:27;19.45;;;10.27;;
20381;SDS011;10350;51.280;12.400;2023-03-04T01:56:59;24.35;;;11.15;;
20381;SDS011;10350;51.280;12.400;2023-03-04T01:59:25;25.20;;;10.90;;
20381;SDS011;10350;51.280;12.400;2023-03-04T02:01:52;22.77;;;10.50;;
20381;SDS011;10350;51.280;12.400;2023-03-04T02:04:19;23.98;;;11.40;;
20381;SDS011;10350;51.280;12.400;2023-03-04T02:06:46;22.05;;;10.65;;
20381;SDS011;10350;51.280;12.400;2023-03-04T02:09:13;17.27;;;9.75;;
20381;SDS011;10350;51.280;12.400;2023-03-04T02:11:39;20.30;;;10.52;;
20381;SDS011;10350;51.280;12.400;2023-03-04T02:14:05;24.13;;;10.52;;
20381;SDS011;10350;51.280;12.400;2023-03-04T02:16:31;22.58;;;10.15;;
20381;SDS011;10350;51.280;12.400;2023-03-04T02:18:57;20.65;;;10.85;;
20381;SDS011;10350;51.280;12.400;2023-03-04T02:21:24;26.30;;;11.45;;
20381;SDS011;10350;51.280;12.400;2023-03-04T02:26:55;24.40;;;10.68;;
20381;SDS011;10350;51.280;12.400;2023-03-04T02:29:21;22.95;;;10.70;;
20381;SDS011;10350;51.280;12.400;2023-03-04T02:31:48;22.02;;;11.00;;
20381;SDS011;10350;51.280;12.400;2023-03-04T02:34:16;23.33;;;10.98;;
20381;SDS011;10350;51.280;12.400;2023-03-04T02:36:42;23.52;;;11.52;;
20381;SDS011;10350;51.280;12.400;2023-03-04T02:39:21;21.70;;;11.05;;
20381;SDS011;10350;51.280;12.400;2023-03-04T02:41:48;21.17;;;10.18;;
20381;SDS011;10350;51.280;12.400;2023-03-04T02:44:16;25.58;;;11.60;;
20381;SDS011;10350;51.280;12.400;2023-03-04T02:46:42;21.10;;;8.88;;
20381;SDS011;10350;51.280;12.400;2023-03-04T02:49:08;22.63;;;11.30;;
20381;SDS011;10350;51.280;12.400;2023-03-04T02:51:34;22.98;;;11.50;;
20381;SDS011;10350;51.280;12.400;2023-03-04T02:54:00;30.38;;;12.40;;
20381;SDS011;10350;51.280;12.400;2023-03-04T02:56:26;26.10;;;11.63;;
20381;SDS011;10350;51.280;12.400;2023-03-04T02:58:51;23.13;;;11.75;;
20381;SDS011;10350;51.280;12.400;2023-03-04T03:01:17;23.65;;;12.00;;
20381;SDS011;10350;51.280;12.400;2023-03-04T03:03:43;21.52;;;12.02;;
20381;SDS011;10350;51.280;12.400;2023-03-04T03:06:09;21.95;;;10.73;;
20381;SDS011;10350;51.280;12.400;2023-03-04T03:08:35;24.88;;;12.02;;
20381;SDS011;10350;51.280;12.400;2023-03-04T03:11:01;26.02;;;11.45;;
20381;SDS011;10350;51.280;12.400;2023-03-04T03:13:27;23.52;;;11.30;;
20381;SDS011;10350;51.280;12.400;2023-03-04T03:15:53;21.63;;;10.68;;
20381;SDS011;10350;51.280;12.400;2023-03-04T03:18:19;22.45;;;11.30;;
20381;SDS011;10350;51.280;12.400;2023-03-04T03:20:45;25.23;;;11.65;;
20381;SDS011;10350;51.280;12.400;2023-03-04T03:23:11;23.08;;;11.90;;
20381;SDS011;10350;51.280;12.400;2023-03-04T03:25:37;20.83;;;11.23;;
20381;SDS011;10350;51.280;12.400;2023-03-04T03:28:03;21.15;;;11.38;;
20381;SDS011;10350;51.280;12.400;2023-03-04T03:30:29;26.50;;;12.13;;
20381;SDS011;10350;51.280;12.400;2023-03-04T03:32:55;24.88;;;11.35;;
20381;SDS011;10350;51.280;12.400;2023-03-04T03:35:21;25.20;;;12.48;;
20381;SDS011;10350;51.280;12.400;2023-03-04T03:37:46;21.45;;;11.10;;
20381;SDS011;10350;51.280;12.400;2023-03-04T03:40:13;24.40;;;11.45;;
20381;SDS011;10350;51.280;12.400;2023-03-04T03:42:39;20.55;;;11.05;;
20381;SDS011;10350;51.280;12.400;2023-03-04T03:45:05;25.75;;;11.93;;
20381;SDS011;10350;51.280;12.400;2023-03-04T03:47:31;25.40;;;12.40;;
20381;SDS011;10350;51.280;12.400;2023-03-04T03:49:57;24.33;;;11.75;;
20381;SDS011;10350;51.280;12.400;2023-03-04T03:52:23;24.63;;;11.75;;
20381;SDS011;10350;51.280;12.400;2023-03-04T03:54:49;24.90;;;12.23;;
20381;SDS011;10350;51.280;12.400;2023-03-04T03:57:15;28.83;;;12.88;;
20381;SDS011;10350;51.280;12.400;2023-03-04T03:59:41;26.75;;;11.70;;
20381;SDS011;10350;51.280;12.400;2023-03-04T04:02:07;24.42;;;12.00;;
20381;SDS011;10350;51.280;12.400;2023-03-04T04:04:33;24.00;;;11.65;;
20381;SDS011;10350;51.280;12.400;2023-03-04T04:06:58;24.77;;;11.40;;
20381;SDS011;10350;51.280;12.400;2023-03-04T04:09:24;26.20;;;11.95;;
20381;SDS011;10350;51.280;12.400;2023-03-04T04:11:50;25.65;;;10.98;;
20381;SDS011;10350;51.280;12.400;2023-03-04T04:14:16;21.10;;;11.75;;
20381;SDS011;10350;51.280;12.400;2023-03-04T04:16:42;23.42;;;11.35;;
20381;SDS011;10350;51.280;12.400;2023-03-04T04:19:11;23.63;;;11.38;;
20381;SDS011;10350;51.280;12.400;2023-03-04T04:21:39;22.85;;;12.00;;
20381;SDS011;10350;51.280;12.400;2023-03-04T04:24:05;26.58;;;11.57;;
20381;SDS011;10350;51.280;12.400;2023-03-04T04:26:31;25.67;;;11.80;;
20381;SDS011;10350;51.280;12.400;2023-03-04T04:28:56;25.25;;;12.05;;
20381;SDS011;10350;51.280;12.400;2023-03-04T04:31:22;24.80;;;11.98;;
20381;SDS011;10350;51.280;12.400;2023-03-04T04:33:48;22.23;;;11.38;;
20381;SDS011;10350;51.280;12.400;2023-03-04T04:36:14;26.55;;;12.20;;
20381;SDS011;10350;51.280;12.400;2023-03-04T04:38:40;25.23;;;11.88;;
20381;SDS011;10350;51.280;12.400;2023-03-04T04:41:10;26.75;;;11.70;;
20381;SDS011;10350;51.280;12.400;2023-03-04T04:43:41;20.80;;;11.15;;
20381;SDS011;10350;51.280;12.400;2023-03-04T04:46:07;30.42;;;12.13;;
20381;SDS011;10350;51.280;12.400;2023-03-04T04:48:33;26.58;;;12.57;;
20381;SDS011;10350;51.280;12.400;2023-03-04T04:50:59;26.02;;;11.32;;
20381;SDS011;10350;51.280;12.400;2023-03-04T04:53:25;25.00;;;11.32;;
20381;SDS011;10350;51.280;12.400;2023-03-04T04:55:51;33.53;;;13.00;;
20381;SDS011;10350;51.280;12.400;2023-03-04T04:58:17;37.67;;;12.25;;
20381;SDS011;10350;51.280;12.400;2023-03-04T05:00:42;24.60;;;12.57;;
20381;SDS011;10350;51.280;12.400;2023-03-04T05:03:08;23.17;;;11.70;;
20381;SDS011;10350;51.280;12.400;2023-03-04T05:05:34;23.25;;;12.15;;
20381;SDS011;10350;51.280;12.400;2023-03-04T05:08:00;25.10;;;11.57;;
20381;SDS011;10350;51.280;12.400;2023-03-04T05:10:26;24.92;;;10.82;;
20381;SDS011;10350;51.280;12.400;2023-03-04T05:12:52;22.77;;;10.50;;
20381;SDS011;10350;51.280;12.400;2023-03-04T05:15:18;25.73;;;11.32;;
20381;SDS011;10350;51.280;12.400;2023-03-04T05:17:44;24.55;;;10.23;;
20381;SDS011;10350;51.280;12.400;2023-03-04T05:20:10;24.50;;;10.98;;
20381;SDS011;10350;51.280;12.400;2023-03-04T05:22:36;27.42;;;11.07;;
20381;SDS011;10350;51.280;12.400;2023-03-04T05:25:02;27.38;;;11.30;;
20381;SDS011;10350;51.280;12.400;2023-03-04T05:27:28;20.55;;;9.85;;
20381;SDS011;10350;51.280;12.400;2023-03-04T05:29:54;22.90;;;10.95;;
20381;SDS011;10350;51.280;12.400;2023-03-04T05:32:23;20.25;;;10.50;;
20381;SDS011;10350;51.280;12.400;2023-03-04T05:34:49;29.10;;;11.48;;
20381;SDS011;10350;51.280;12.400;2023-03-04T05:37:15;22.88;;;10.30;;
20381;SDS011;10350;51.280;12.400;2023-03-04T05:39:41;26.77;;;11.38;;
20381;SDS011;10350;51.280;12.400;2023-03-04T05:42:07;23.17;;;10.00;;
20381;SDS011;10350;51.280;12.400;2023-03-04T05:44:33;25.13;;;10.10;;
20381;SDS011;10350;51.280;12.400;2023-03-04T05:46:58;24.42;;;10.57;;
20381;SDS011;10350;51.280;12.400;2023-03-04T05:49:24;21.25;;;11.05;;
20381;SDS011;10350;51.280;12.400;2023-03-04T05:51:51;22.60;;;10.13;;
20381;SDS011;10350;51.280;12.400;2023-03-04T05:54:17;27.00;;;10.18;;
20381;SDS011;10350;51.280;12.400;2023-03-04T05:56:43;23.90;;;9.35;;
20381;SDS011;10350;51.280;12.400;2023-03-04T05:59:09;25.33;;;10.80;;
20381;SDS011;10350;51.280;12.400;2023-03-04T06:01:35;22.63;;;9.95;;
20381;SDS011;10350;51.280;12.400;2023-03-04T06:04:01;23.63;;;9.88;;
20381;SDS011;10350;51.280;12.400;2023-03-04T06:06:27;20.42;;;10.48;;
20381;SDS011;10350;51.280;12.400;2023-03-04T06:08:53;22.25;;;9.70;;
20381;SDS011;10350;51.280;12.400;2023-03-04T06:11:19;22.63;;;10.63;;
20381;SDS011;10350;51.280;12.400;2023-03-04T06:13:45;21.73;;;9.55;;
20381;SDS011;10350;51.280;12.400;2023-03-04T06:16:11;18.83;;;9.40;;
20381;SDS011;10350;51.280;12.400;2023-03-04T06:18:37;21.15;;;9.32;;
20381;SDS011;10350;51.280;12.400;2023-03-04T06:21:04;22.83;;;10.05;;
20381;SDS011;10350;51.280;12.400;2023-03-04T06:23:30;20.27;;;9.45;;
20381;SDS011;10350;51.280;12.400;2023-03-04T06:25:57;21.98;;;9.55;;
20381;SDS011;10350;51.280;12.400;2023-03-04T06:28:23;22.05;;;9.07;;
20381;SDS011;10350;51.280;12.400;2023-03-04T06:30:52;20.33;;;9.15;;
20381;SDS011;10350;51.280;12.400;2023-03-04T06:33:18;19.88;;;9.18;;
20381;SDS011;10350;51.280;12.400;2023-03-04T06:35:44;20.35;;;8.82;;
20381;SDS011;10350;51.280;12.400;2023-03-04T06:38:10;18.25;;;8.98;;
20381;SDS011;10350;51.280;12.400;2023-03-04T06:40:36;22.52;;;8.98;;
20381;SDS011;10350;51.280;12.400;2023-03-04T06:43:02;23.63;;;8.52;;
20381;SDS011;10350;51.280;12.400;2023-03-04T06:45:28;25.15;;;9.35;;
20381;SDS011;10350;51.280;12.400;2023-03-04T06:47:53;22.10;;;9.25;;
20381;SDS011;10350;51.280;12.400;2023-03-04T06:50:19;19.20;;;8.60;;
20381;SDS011;10350;51.280;12.400;2023-03-04T06:52:45;24.10;;;8.68;;
20381;SDS011;10350;51.280;12.400;2023-03-04T06:55:13;16.67;;;8.70;;
20381;SDS011;10350;51.280;12.400;2023-03-04T06:57:39;16.45;;;8.48;;
20381;SDS011;10350;51.280;12.400;2023-03-04T07:00:05;17.08;;;7.65;;
20381;SDS011;10350;51.280;12.400;2023-03-04T07:02:31;17.73;;;8.93;;
20381;SDS011;10350;51.280;12.400;2023-03-04T07:04:57;16.00;;;7.57;;
20381;SDS011;10350;51.280;12.400;2023-03-04T07:07:23;21.77;;;8.35;;
20381;SDS011;10350;51.280;12.400;2023-03-04T07:09:50;19.33;;;7.65;;
20381;SDS011;10350;51.280;12.400;2023-03-04T07:12:16;17.98;;;7.95;;
20381;SDS011;10350;51.280;12.400;2023-03-04T07:14:42;26.85;;;7.95;;
20381;SDS011;10350;51.280;12.400;2023-03-04T07:17:07;17.48;;;7.68;;
20381;SDS011;10350;51.280;12.400;2023-03-04T07:19:34;20.50;;;7.25;;
20381;SDS011;10350;51.280;12.400;2023-03-04T07:22:00;20.90;;;7.10;;
20381;SDS011;10350;51.280;12.400;2023-03-04T07:24:25;19.15;;;7.03;;
20381;SDS011;10350;51.280;12.400;2023-03-04T07:26:51;20.15;;;7.38;;
20381;SDS011;10350;51.280;12.400;2023-03-04T07:29:17;14.98;;;6.80;;
20381;SDS011;10350;51.280;12.400;2023-03-04T07:31:43;19.17;;;6.75;;
20381;SDS011;10350;51.280;12.400;2023-03-04T07:34:11;18.23;;;6.50;;
20381;SDS011;10350;51.280;12.400;2023-03-04T07:36:37;18.60;;;6.65;;
20381;SDS011;10350;51.280;12.400;2023-03-04T07:39:03;19.52;;;6.82;;
20381;SDS011;10350;51.280;12.400;2023-03-04T07:41:30;18.58;;;7.28;;
20381;SDS011;10350;51.280;12.400;2023-03-04T07:44:00;16.30;;;6.95;;
20381;SDS011;10350;51.280;12.400;2023-03-04T07:46:25;15.20;;;6.30;;
20381;SDS011;10350;51.280;12.400;2023-03-04T07:48:51;21.65;;;6.63;;
20381;SDS011;10350;51.280;12.400;2023-03-04T07:51:18;16.73;;;6.75;;
20381;SDS011;10350;51.280;12.400;2023-03-04T07:53:46;19.05;;;6.55;;
20381;SDS011;10350;51.280;12.400;2023-03-04T07:56:13;17.13;;;6.47;;
20381;SDS011;10350;51.280;12.400;2023-03-04T07:58:39;14.80;;;5.85;;
20381;SDS011;10350;51.280;12.400;2023-03-04T08:01:09;18.48;;;6.05;;
20381;SDS011;10350;51.280;12.400;2023-03-04T08:03:35;18.33;;;6.30;;
20381;SDS011;10350;51.280;12.400;2023-03-04T08:06:03;17.38;;;6.05;;
20381;SDS011;10350;51.280;12.400;2023-03-04T08:08:29;12.48;;;5.65;;
20381;SDS011;10350;51.280;12.400;2023-03-04T08:10:55;16.25;;;6.35;;
20381;SDS011;10350;51.280;12.400;2023-03-04T08:13:21;10.48;;;5.65;;
20381;SDS011;10350;51.280;12.400;2023-03-04T08:15:47;12.55;;;5.75;;
20381;SDS011;10350;51.280;12.400;2023-03-04T08:18:13;19.00;;;6.45;;
20381;SDS011;10350;51.280;12.400;2023-03-04T08:20:42;16.05;;;5.75;;
20381;SDS011;10350;51.280;12.400;2023-03-04T08:23:09;15.10;;;5.88;;
20381;SDS011;10350;51.280;12.400;2023-03-04T08:25:39;13.93;;;5.93;;
20381;SDS011;10350;51.280;12.400;2023-03-04T08:28:05;16.40;;;6.88;;
20381;SDS011;10350;51.280;12.400;2023-03-04T08:30:31;12.88;;;5.47;;
20381;SDS011;10350;51.280;12.400;2023-03-04T08:32:57;9.90;;;5.65;;
20381;SDS011;10350;51.280;12.400;2023-03-04T08:35:23;9.23;;;5.00;;
20381;SDS011;10350;51.280;12.400;2023-03-04T08:37:49;17.35;;;5.68;;
20381;SDS011;10350;51.280;12.400;2023-03-04T08:40:15;15.50;;;5.00;;
20381;SDS011;10350;51.280;12.400;2023-03-04T08:42:41;10.40;;;4.85;;
20381;SDS011;10350;51.280;12.400;2023-03-04T08:45:07;9.27;;;4.75;;
20381;SDS011;10350;51.280;12.400;2023-03-04T08:47:34;16.60;;;5.63;;
20381;SDS011;10350;51.280;12.400;2023-03-04T08:49:59;15.75;;;5.18;;
20381;SDS011;10350;51.280;12.400;2023-03-04T08:52:27;15.55;;;5.50;;
20381;SDS011;10350;51.280;12.400;2023-03-04T08:54:53;13.70;;;5.70;;
20381;SDS011;10350;51.280;12.400;2023-03-04T08:57:19;13.68;;;5.35;;
20381;SDS011;10350;51.280;12.400;2023-03-04T08:59:45;14.45;;;5.60;;
20381;SDS011;10350;51.280;12.400;2023-03-04T09:02:10;13.00;;;5.35;;
20381;SDS011;10350;51.280;12.400;2023-03-04T09:04:36;12.75;;;6.13;;
20381;SDS011;10350;51.280;12.400;2023-03-04T09:07:02;12.00;;;4.82;;
20381;SDS011;10350;51.280;12.400;2023-03-04T09:09:28;14.23;;;5.38;;
20381;SDS011;10350;51.280;12.400;2023-03-04T09:11:54;10.05;;;6.57;;
20381;SDS011;10350;51.280;12.400;2023-03-04T09:14:20;12.45;;;5.55;;
20381;SDS011;10350;51.280;12.400;2023-03-04T09:16:46;13.00;;;5.95;;
20381;SDS011;10350;51.280;12.400;2023-03-04T09:19:12;11.20;;;5.68;;
20381;SDS011;10350;51.280;12.400;2023-03-04T09:21:38;11.65;;;6.05;;
20381;SDS011;10350;51.280;12.400;2023-03-04T09:24:04;13.95;;;5.95;;
20381;SDS011;10350;51.280;12.400;2023-03-04T09:26:30;7.30;;;4.68;;
20381;SDS011;10350;51.280;12.400;2023-03-04T09:28:57;8.75;;;4.55;;
20381;SDS011;10350;51.280;12.400;2023-03-04T09:31:23;7.65;;;4.97;;
20381;SDS011;10350;51.280;12.400;2023-03-04T09:33:50;12.95;;;5.70;;
20381;SDS011;10350;51.280;12.400;2023-03-04T09:36:16;9.52;;;5.65;;
20381;SDS011;10350;51.280;12.400;2023-03-04T09:38:42;9.50;;;4.78;;
20381;SDS011;10350;51.280;12.400;2023-03-04T09:41:09;9.20;;;4.70;;
20381;SDS011;10350;51.280;12.400;2023-03-04T09:43:36;11.73;;;5.60;;
20381;SDS011;10350;51.280;12.400;2023-03-04T09:46:03;10.15;;;4.55;;
20381;SDS011;10350;51.280;12.400;2023-03-04T09:48:38;10.20;;;4.53;;
20381;SDS011;10350;51.280;12.400;2023-03-04T09:56:25;11.52;;;5.18;;
20381;SDS011;10350;51.280;12.400;2023-03-04T10:03:54;10.10;;;5.43;;
20381;SDS011;10350;51.280;12.400;2023-03-04T10:06:23;12.43;;;5.88;;
20381;SDS011;10350;51.280;12.400;2023-03-04T10:08:59;10.40;;;4.68;;
20381;SDS011;10350;51.280;12.400;2023-03-04T10:16:25;12.85;;;4.10;;
20381;SDS011;10350;51.280;12.400;2023-03-04T10:18:58;8.75;;;4.57;;
20381;SDS011;10350;51.280;12.400;2023-03-04T10:24:27;8.32;;;3.90;;
20381;SDS011;10350;51.280;12.400;2023-03-04T10:26:55;15.25;;;4.32;;
20381;SDS011;10350;51.280;12.400;2023-03-04T10:29:23;8.80;;;3.80;;
20381;SDS011;10350;51.280;12.400;2023-03-04T10:31:49;12.25;;;3.97;;
20381;SDS011;10350;51.280;12.400;2023-03-04T10:34:16;9.15;;;3.80;;
20381;SDS011;10350;51.280;12.400;2023-03-04T10:37:01;9.77;;;3.85;;
20381;SDS011;10350;51.280;12.400;2023-03-04T10:39:33;8.68;;;4.28;;
20381;SDS011;10350;51.280;12.400;2023-03-04T10:42:02;6.97;;;4.85;;
20381;SDS011;10350;51.280;12.400;2023-03-04T10:44:29;4.25;;;3.70;;
20381;SDS011;10350;51.280;12.400;2023-03-04T10:46:57;8.48;;;4.20;;
20381;SDS011;10350;51.280;12.400;2023-03-04T10:49:23;9.40;;;4.05;;
20381;SDS011;10350;51.280;12.400;2023-03-04T10:54:49;4.07;;;3.67;;
20381;SDS011;10350;51.280;12.400;2023-03-04T11:02:24;5.75;;;3.33;;
20381;SDS011;10350;51.280;12.400;2023-03-04T11:04:55;3.38;;;3.13;;
20381;SDS011;10350;51.280;12.400;2023-03-04T11:07:22;3.10;;;2.78;;
20381;SDS011;10350;51.280;12.400;2023-03-04T11:09:48;6.28;;;3.50;;
20381;SDS011;10350;51.280;12.400;2023-03-04T11:12:15;3.83;;;2.90;;
20381;SDS011;10350;51.280;12.400;2023-03-04T11:14:45;6.63;;;3.60;;
20381;SDS011;10350;51.280;12.400;2023-03-04T11:17:15;7.43;;;3.50;;
20381;SDS011;10350;51.280;12.400;2023-03-04T11:19:42;11.23;;;3.33;;
20381;SDS011;10350;51.280;12.400;2023-03-04T11:22:11;6.15;;;3.55;;
20381;SDS011;10350;51.280;12.400;2023-03-04T11:24:39;4.85;;;3.72;;
20381;SDS011;10350;51.280;12.400;2023-03-04T11:27:05;6.65;;;2.90;;
20381;SDS011;10350;51.280;12.400;2023-03-04T11:29:37;4.78;;;3.00;;
20381;SDS011;10350;51.280;12.400;2023-03-04T11:32:10;4.80;;;3.20;;
20381;SDS011;10350;51.280;12.400;2023-03-04T11:34:58;6.50;;;3.17;;
20381;SDS011;10350;51.280;12.400;2023-03-04T11:37:30;5.90;;;3.75;;
20381;SDS011;10350;51.280;12.400;2023-03-04T11:45:00;8.43;;;3.58;;
20381;SDS011;10350;51.280;12.400;2023-03-04T11:47:39;3.38;;;3.10;;
20381;SDS011;10350;51.280;12.400;2023-03-04T11:52:55;3.42;;;2.97;;
20381;SDS011;10350;51.280;12.400;2023-03-04T12:00:26;5.80;;;3.08;;
20381;SDS011;10350;51.280;12.400;2023-03-04T12:03:02;5.57;;;3.13;;
20381;SDS011;10350;51.280;12.400;2023-03-04T12:05:43;6.55;;;3.17;;
20381;SDS011;10350;51.280;12.400;2023-03-04T12:08:16;4.10;;;3.70;;
20381;SDS011;10350;51.280;12.400;2023-03-04T12:10:48;3.22;;;2.97;;
20381;SDS011;10350;51.280;12.400;2023-03-04T12:13:35;3.88;;;3.50;;
20381;SDS011;10350;51.280;12.400;2023-03-04T12:16:18;4.78;;;3.20;;
20381;SDS011;10350;51.280;12.400;2023-03-04T12:18:49;5.07;;;3.35;;
20381;SDS011;10350;51.280;12.400;2023-03-04T12:24:16;5.28;;;3.50;;
20381;SDS011;10350;51.280;12.400;2023-03-04T12:26:50;3.67;;;3.15;;
20381;SDS011;10350;51.280;12.400;2023-03-04T12:29:22;3.30;;;3.10;;
20381;SDS011;10350;51.280;12.400;2023-03-04T12:31:54;6.15;;;3.72;;
20381;SDS011;10350;51.280;12.400;2023-03-04T12:34:29;3.95;;;3.55;;
20381;SDS011;10350;51.280;12.400;2023-03-04T12:37:05;3.85;;;3.50;;
20381;SDS011;10350;51.280;12.400;2023-03-04T12:42:04;3.55;;;3.25;;
20381;SDS011;10350;51.280;12.400;2023-03-04T12:44:34;5.50;;;3.00;;
20381;SDS011;10350;51.280;12.400;2023-03-04T12:47:09;3.10;;;2.72;;
20381;SDS011;10350;51.280;12.400;2023-03-04T12:54:52;5.20;;;3.13;;
20381;SDS011;10350;51.280;12.400;2023-03-04T12:57:22;7.35;;;3.13;;
20381;SDS011;10350;51.280;12.400;2023-03-04T13:05:02;5.85;;;3.03;;
20381;SDS011;10350;51.280;12.400;2023-03-04T13:07:37;3.97;;;3.58;;
20381;SDS011;10350;51.280;12.400;2023-03-04T13:10:08;4.70;;;3.38;;
20381;SDS011;10350;51.280;12.400;2023-03-04T13:12:45;3.42;;;3.13;;
20381;SDS011;10350;51.280;12.400;2023-03-04T13:17:42;3.17;;;2.97;;
20381;SDS011;10350;51.280;12.400;2023-03-04T13:23:00;3.10;;;2.80;;
20381;SDS011;10350;51.280;12.400;2023-03-04T13:25:36;4.15;;;3.13;;
20381;SDS011;10350;51.280;12.400;2023-03-04T13:28:11;5.25;;;3.22;;
20381;SDS011;10350;51.280;12.400;2023-03-04T13:31:03;3.38;;;2.53;;
20381;SDS011;10350;51.280;12.400;2023-03-04T13:43:40;3.67;;;3.10;;
20381;SDS011;10350;51.280;12.400;2023-03-04T13:51:25;5.22;;;3.50;;
20381;SDS011;10350;51.280;12.400;2023-03-04T13:53:52;4.57;;;3.17;;
20381;SDS011;10350;51.280;12.400;2023-03-04T14:04:18;4.18;;;3.22;;
20381;SDS011;10350;51.280;12.400;2023-03-04T14:06:45;4.47;;;3.60;;
20381;SDS011;10350;51.280;12.400;2023-03-04T14:09:12;3.75;;;3.45;;
20381;SDS011;10350;51.280;12.400;2023-03-04T14:11:38;4.73;;;3.73;;
20381;SDS011;10350;51.280;12.400;2023-03-04T14:14:12;4.93;;;3.75;;
20381;SDS011;10350;51.280;12.400;2023-03-04T14:16:39;4.55;;;4.03;;
20381;SDS011;10350;51.280;12.400;2023-03-04T14:19:25;6.18;;;3.65;;
20381;SDS011;10350;51.280;12.400;2023-03-04T14:21:52;6.85;;;3.25;;
20381;SDS011;10350;51.280;12.400;2023-03-04T14:24:19;5.47;;;3.30;;
20381;SDS011;10350;51.280;12.400;2023-03-04T14:26:46;6.07;;;3.73;;
20381;SDS011;10350;51.280;12.400;2023-03-04T14:29:27;4.75;;;3.42;;
20381;SDS011;10350;51.280;12.400;2023-03-04T14:31:54;10.55;;;3.75;;
20381;SDS011;10350;51.280;12.400;2023-03-04T14:34:23;8.20;;;3.67;;
20381;SDS011;10350;51.280;12.400;2023-03-04T14:39:15;7.35;;;3.78;;
20381;SDS011;10350;51.280;12.400;2023-03-04T14:41:42;6.78;;;3.30;;
20381;SDS011;10350;51.280;12.400;2023-03-04T14:46:39;6.75;;;3.63;;
20381;SDS011;10350;51.280;12.400;2023-03-04T14:49:09;5.13;;;3.47;;
20381;SDS011;10350;51.280;12.400;2023-03-04T14:51:52;7.90;;;4.05;;
20381;SDS011;10350;51.280;12.400;2023-03-04T14:56:53;6.30;;;4.32;;
20381;SDS011;10350;51.280;12.400;2023-03-04T15:02:07;5.60;;;3.83;;
20381;SDS011;10350;51.280;12.400;2023-03-04T15:04:33;9.38;;;4.53;;
20381;SDS011;10350;51.280;12.400;2023-03-04T15:07:02;6.47;;;4.10;;
20381;SDS011;10350;51.280;12.400;2023-03-04T15:09:28;6.22;;;4.72;;
20381;SDS011;10350;51.280;12.400;2023-03-04T15:11:59;7.18;;;4.43;;
20381;SDS011;10350;51.280;12.400;2023-03-04T15:14:44;11.32;;;4.65;;
20381;SDS011;10350;51.280;12.400;2023-03-04T15:19:56;9.18;;;4.80;;
20381;SDS011;10350;51.280;12.400;2023-03-04T15:22:22;10.52;;;5.22;;
20381;SDS011;10350;51.280;12.400;2023-03-04T15:24:48;10.57;;;4.47;;
20381;SDS011;10350;51.280;12.400;2023-03-04T15:27:14;8.70;;;3.85;;
20381;SDS011;10350;51.280;12.400;2023-03-04T15:29:41;7.18;;;3.55;;
20381;SDS011;10350;51.280;12.400;2023-03-04T15:32:08;9.93;;;4.63;;
20381;SDS011;10350;51.280;12.400;2023-03-04T15:34:34;6.00;;;3.67;;
20381;SDS011;10350;51.280;12.400;2023-03-04T15:37:00;5.95;;;3.72;;
20381;SDS011;10350;51.280;12.400;2023-03-04T15:39:25;4.95;;;3.65;;
20381;SDS011;10350;51.280;12.400;2023-03-04T15:41:51;6.53;;;3.38;;
20381;SDS011;10350;51.280;12.400;2023-03-04T15:44:19;7.78;;;3.10;;
20381;SDS011;10350;51.280;12.400;2023-03-04T15:46:45;6.75;;;3.75;;
20381;SDS011;10350;51.280;12.400;2023-03-04T15:49:11;4.55;;;3.42;;
20381;SDS011;10350;51.280;12.400;2023-03-04T15:51:37;3.85;;;3.15;;
20381;SDS011;10350;51.280;12.400;2023-03-04T15:54:03;3.90;;;3.13;;
20381;SDS011;10350;51.280;12.400;2023-03-04T15:56:30;8.57;;;3.42;;
20381;SDS011;10350;51.280;12.400;2023-03-04T15:58:56;3.65;;;3.22;;
20381;SDS011;10350;51.280;12.400;2023-03-04T16:01:23;6.28;;;3.10;;
20381;SDS011;10350;51.280;12.400;2023-03-04T16:03:50;6.10;;;3.35;;